Time;durP1;ratioP1;P1;durP2;ratioP2;P2;SDS_P1;SDS_P2;PMS_P1;PMS_P2;Temp;Humidity;BMP_temperature;BMP_pressure;BME280_temperature;BME280_humidity;BME280_pressure;Samples;Min_cycle;Max_cycle;Signal;HPM_P1;HPM_P2
2021/10/05 00:00:19;;;;;;;1.50;0.80;;;14.10;99.90;;;;;;5084510;28;20413;-78
2021/10/05 00:02:48;;;;;;;1.47;1.27;;;14.00;99.90;;;;;;5072427;28;20423;-77
2021/10/05 00:05:16;;;;;;;6.90;2.53;;;14.00;99.90;;;;;;5073353;28;20455;-76
2021/10/05 00:07:44;;;;;;;1.83;1.07;;;13.80;99.90;;;;;;5073152;28;20455;-77
2021/10/05 00:10:13;;;;;;;0.90;0.60;;;13.80;99.90;;;;;;5062043;28;20408;-79
2021/10/05 00:12:42;;;;;;;1.40;1.30;;;13.70;99.90;;;;;;5073004;28;20437;-80
2021/10/05 00:15:13;;;;;;;1.30;0.97;;;13.80;99.90;;;;;;5056631;28;20414;-81
2021/10/05 00:17:41;;;;;;;2.70;1.53;;;13.80;99.90;;;;;;5058271;28;20848;-80
2021/10/05 00:20:11;;;;;;;1.47;0.93;;;13.80;99.90;;;;;;5057842;28;20752;-79
2021/10/05 00:22:40;;;;;;;2.03;1.57;;;13.90;99.90;;;;;;5055676;28;20427;-78
2021/10/05 00:25:09;;;;;;;1.53;1.20;;;13.90;99.90;;;;;;5057224;28;20447;-79
2021/10/05 00:27:37;;;;;;;4.63;2.00;;;13.90;99.90;;;;;;5082808;22;20433;-80
2021/10/05 00:30:07;;;;;;;1.60;1.40;;;14.00;99.90;;;;;;5053925;28;20463;-80
2021/10/05 00:32:36;;;;;;;1.20;0.87;;;14.00;99.90;;;;;;5071795;28;20451;-79
2021/10/05 00:35:06;;;;;;;1.77;1.67;;;13.90;99.90;;;;;;5071714;28;20479;-80
2021/10/05 00:37:34;;;;;;;2.80;1.47;;;13.90;99.90;;;;;;5070699;28;20370;-80
2021/10/05 00:40:02;;;;;;;1.53;1.00;;;13.80;99.90;;;;;;5070702;28;20411;-79
2021/10/05 00:42:30;;;;;;;1.33;1.23;;;13.70;99.90;;;;;;5074849;28;20437;-80
2021/10/05 00:44:58;;;;;;;1.93;1.73;;;13.80;99.90;;;;;;5075690;28;20427;-80
2021/10/05 00:47:29;;;;;;;2.00;1.13;;;13.90;99.90;;;;;;5076009;28;20428;-80
2021/10/05 00:49:59;;;;;;;1.43;1.10;;;13.90;99.90;;;;;;5075494;28;20431;-79
2021/10/05 00:52:27;;;;;;;2.50;2.30;;;13.80;99.90;;;;;;5077619;28;20462;-81
2021/10/05 00:54:55;;;;;;;2.40;1.23;;;13.80;99.90;;;;;;5077244;28;20393;-79
2021/10/05 00:57:39;;;;;;;2.00;1.37;;;13.80;99.90;;;;;;5075517;28;20398;-79
2021/10/05 01:00:09;;;;;;;1.93;1.10;;;13.80;99.90;;;;;;5071458;28;20389;-79
2021/10/05 01:02:38;;;;;;;1.23;1.13;;;13.80;99.90;;;;;;5069867;28;20427;-79
2021/10/05 01:05:08;;;;;;;1.30;1.20;;;13.70;99.90;;;;;;5072044;28;20457;-79
2021/10/05 01:07:36;;;;;;;3.33;1.70;;;13.60;99.90;;;;;;5073497;28;20413;-77
2021/10/05 01:10:05;;;;;;;1.60;1.20;;;13.60;99.90;;;;;;5073345;28;20450;-80
2021/10/05 01:12:34;;;;;;;2.03;1.03;;;13.50;99.90;;;;;;5074734;28;20421;-80
2021/10/05 01:15:02;;;;;;;1.00;0.77;;;13.50;99.90;;;;;;5073503;28;20426;-80
2021/10/05 01:17:30;;;;;;;1.93;1.13;;;13.40;99.90;;;;;;5072319;28;20458;-78
2021/10/05 01:19:58;;;;;;;1.57;0.80;;;13.50;99.90;;;;;;5068291;28;20936;-79
2021/10/05 01:22:27;;;;;;;1.43;1.20;;;13.50;99.90;;;;;;5070829;28;20423;-78
2021/10/05 01:24:55;;;;;;;1.50;1.30;;;13.60;99.90;;;;;;5071465;28;20423;-80
2021/10/05 01:27:23;;;;;;;3.53;1.17;;;13.70;99.90;;;;;;5069785;28;20411;-80
2021/10/05 01:29:51;;;;;;;1.27;0.77;;;13.50;99.90;;;;;;5071346;28;20475;-80
2021/10/05 01:32:19;;;;;;;1.47;1.37;;;13.60;99.90;;;;;;5073741;28;20430;-79
2021/10/05 01:34:47;;;;;;;1.43;1.13;;;13.50;99.90;;;;;;5074786;28;20569;-78
2021/10/05 01:37:15;;;;;;;2.13;1.63;;;13.50;99.90;;;;;;5073351;28;20430;-79
2021/10/05 01:39:45;;;;;;;1.40;1.30;;;13.50;99.90;;;;;;5072757;28;20466;-79
2021/10/05 01:42:14;;;;;;;1.50;1.20;;;13.50;99.90;;;;;;5072006;28;20445;-79
2021/10/05 01:44:44;;;;;;;1.83;0.90;;;13.50;99.90;;;;;;5073354;28;20438;-77
2021/10/05 01:47:12;;;;;;;1.33;1.23;;;13.50;99.90;;;;;;5074304;28;20450;-79
2021/10/05 01:49:40;;;;;;;3.13;1.27;;;13.50;99.90;;;;;;5074615;28;20439;-79
2021/10/05 01:52:08;;;;;;;1.10;0.90;;;13.60;99.90;;;;;;5072769;28;20398;-79
2021/10/05 01:54:37;;;;;;;1.00;0.73;;;13.60;99.90;;;;;;5075821;28;20448;-78
2021/10/05 01:57:06;;;;;;;1.20;1.00;;;13.60;99.90;;;;;;5076175;28;20439;-78
2021/10/05 01:59:37;;;;;;;1.53;1.33;;;13.60;99.90;;;;;;5075929;28;20485;-77
2021/10/05 02:02:05;;;;;;;1.47;1.37;;;13.60;99.90;;;;;;5075794;28;20430;-79
2021/10/05 02:04:34;;;;;;;0.90;0.57;;;13.60;99.90;;;;;;5075039;28;20436;-78
2021/10/05 02:07:03;;;;;;;1.27;0.90;;;13.60;99.90;;;;;;5074678;28;20420;-79
2021/10/05 02:09:31;;;;;;;0.90;0.70;;;13.60;99.90;;;;;;5074374;28;20919;-78
2021/10/05 02:11:59;;;;;;;1.63;1.00;;;13.70;99.90;;;;;;5073878;28;20397;-79
2021/10/05 02:14:28;;;;;;;2.13;1.93;;;13.70;99.90;;;;;;5073848;28;20535;-78
2021/10/05 02:16:56;;;;;;;3.53;0.80;;;13.50;99.90;;;;;;5073516;28;20418;-78
2021/10/05 02:19:25;;;;;;;2.80;2.30;;;13.40;99.90;;;;;;5073005;28;20451;-77
2021/10/05 02:21:53;;;;;;;1.97;1.33;;;13.30;99.90;;;;;;5073729;28;20386;-78
2021/10/05 02:27:07;;;;;;;1.43;1.33;;;13.30;99.90;;;;;;5073709;28;20474;-79
2021/10/05 02:29:37;;;;;;;0.90;0.60;;;13.30;99.90;;;;;;5074178;28;20456;-78
2021/10/05 02:32:06;;;;;;;0.90;0.60;;;13.20;99.90;;;;;;5073622;28;20426;-78
2021/10/05 02:34:35;;;;;;;1.10;0.70;;;13.20;99.90;;;;;;5074011;28;20430;-78
2021/10/05 02:37:04;;;;;;;1.07;0.97;;;13.20;99.90;;;;;;5074326;28;20430;-79
2021/10/05 02:39:33;;;;;;;1.57;0.80;;;13.20;99.90;;;;;;5070984;28;20462;-79
2021/10/05 02:42:01;;;;;;;0.83;0.57;;;13.20;99.90;;;;;;5069775;28;20437;-79
2021/10/05 02:44:29;;;;;;;0.90;0.60;;;13.20;99.90;;;;;;5070810;28;20480;-79
2021/10/05 02:46:58;;;;;;;1.30;0.80;;;13.20;99.90;;;;;;5069757;28;20437;-79
2021/10/05 02:49:26;;;;;;;0.90;0.60;;;13.20;99.90;;;;;;5069688;28;20428;-79
2021/10/05 02:51:54;;;;;;;0.80;0.50;;;13.20;99.90;;;;;;5070329;28;20402;-78
2021/10/05 02:54:23;;;;;;;1.00;0.80;;;13.20;99.90;;;;;;5069669;28;20457;-79
2021/10/05 02:56:51;;;;;;;1.00;0.77;;;13.20;99.90;;;;;;5067779;28;20397;-79
2021/10/05 02:59:19;;;;;;;0.90;0.60;;;13.20;99.90;;;;;;5069978;28;20437;-80
2021/10/05 03:01:48;;;;;;;1.00;0.90;;;13.30;99.90;;;;;;5068065;28;20382;-80
2021/10/05 03:04:17;;;;;;;1.23;0.83;;;13.30;99.90;;;;;;5067352;28;20383;-80
2021/10/05 03:06:45;;;;;;;1.00;0.73;;;13.20;99.90;;;;;;5066829;28;20427;-79
2021/10/05 03:09:13;;;;;;;1.83;1.10;;;13.20;99.90;;;;;;5068333;28;20454;-80
2021/10/05 03:11:42;;;;;;;0.93;0.67;;;13.20;99.90;;;;;;5066179;28;20413;-80
2021/10/05 03:14:10;;;;;;;0.97;0.73;;;13.20;99.90;;;;;;5068443;28;20545;-80
2021/10/05 03:16:38;;;;;;;0.90;0.50;;;13.30;99.90;;;;;;5069454;28;20382;-80
2021/10/05 03:19:06;;;;;;;0.93;0.80;;;13.40;99.90;;;;;;5068790;28;20455;-79
2021/10/05 03:21:36;;;;;;;0.80;0.50;;;13.30;99.90;;;;;;5069311;28;20461;-79
2021/10/05 03:24:05;;;;;;;1.33;1.23;;;13.30;99.90;;;;;;5070952;28;20412;-79
2021/10/05 03:26:33;;;;;;;0.90;0.67;;;13.20;99.90;;;;;;5069561;28;20406;-79
2021/10/05 03:29:01;;;;;;;0.80;0.50;;;13.20;99.90;;;;;;5069627;28;20562;-79
2021/10/05 03:31:29;;;;;;;0.90;0.67;;;13.20;99.90;;;;;;5067942;28;20390;-80
2021/10/05 03:33:58;;;;;;;0.90;0.60;;;13.20;99.90;;;;;;5068357;28;20558;-79
2021/10/05 03:36:26;;;;;;;1.00;0.60;;;13.30;99.90;;;;;;5069352;28;20401;-79
2021/10/05 03:38:56;;;;;;;0.90;0.60;;;13.30;99.90;;;;;;5071364;28;20443;-79
2021/10/05 03:41:24;;;;;;;2.10;0.70;;;13.30;99.90;;;;;;5070739;28;20417;-80
2021/10/05 03:43:52;;;;;;;1.17;0.83;;;13.20;99.90;;;;;;5071412;28;20418;-79
2021/10/05 03:46:20;;;;;;;0.80;0.43;;;13.20;99.90;;;;;;5069439;28;20412;-80
2021/10/05 03:48:48;;;;;;;0.80;0.47;;;13.20;99.90;;;;;;5068040;28;20924;-77
2021/10/05 03:51:16;;;;;;;0.80;0.50;;;13.20;99.90;;;;;;5069308;28;20480;-78
2021/10/05 03:53:44;;;;;;;1.70;0.93;;;13.30;99.90;;;;;;5069736;28;20417;-79
2021/10/05 03:56:14;;;;;;;1.00;0.60;;;13.20;99.90;;;;;;5071249;28;20402;-78
2021/10/05 03:58:42;;;;;;;0.90;0.60;;;13.20;99.90;;;;;;5070952;28;20477;-78
2021/10/05 04:01:10;;;;;;;0.90;0.50;;;13.20;99.90;;;;;;5070727;28;20488;-78
2021/10/05 04:03:41;;;;;;;1.07;0.80;;;13.20;99.90;;;;;;5071342;28;20396;-78
2021/10/05 04:06:09;;;;;;;0.80;0.50;;;13.10;99.90;;;;;;5068154;28;20407;-79
2021/10/05 04:08:37;;;;;;;0.90;0.60;;;13.10;99.90;;;;;;5069830;28;20430;-79
2021/10/05 04:11:06;;;;;;;0.90;0.53;;;13.10;99.90;;;;;;5070775;28;20395;-78
2021/10/05 04:13:35;;;;;;;2.50;1.20;;;13.10;99.90;;;;;;5069984;28;20406;-77
2021/10/05 04:16:04;;;;;;;0.80;0.50;;;13.10;99.90;;;;;;5068831;28;20411;-80
2021/10/05 04:18:32;;;;;;;0.90;0.50;;;13.10;99.90;;;;;;5065696;28;20451;-79
2021/10/05 04:21:01;;;;;;;0.80;0.50;;;13.00;99.90;;;;;;5064103;28;20427;-78
2021/10/05 04:23:29;;;;;;;1.20;0.97;;;13.00;99.90;;;;;;5064550;28;20411;-79
2021/10/05 04:25:57;;;;;;;0.93;0.73;;;13.10;99.90;;;;;;5064646;28;20910;-79
2021/10/05 04:28:25;;;;;;;0.90;0.60;;;13.00;99.90;;;;;;5065756;28;20553;-79
2021/10/05 04:30:54;;;;;;;1.77;1.67;;;13.00;99.90;;;;;;5065875;28;20420;-79
2021/10/05 04:33:22;;;;;;;1.00;0.73;;;13.00;99.90;;;;;;5066158;28;20423;-79
2021/10/05 04:35:50;;;;;;;0.90;0.50;;;12.90;99.90;;;;;;5066774;28;20537;-80
2021/10/05 04:38:19;;;;;;;1.67;0.77;;;12.90;99.90;;;;;;5065994;28;20980;-78
2021/10/05 04:40:47;;;;;;;1.13;0.90;;;12.80;99.90;;;;;;5065432;28;20449;-78
2021/10/05 04:43:15;;;;;;;0.90;0.50;;;12.80;99.90;;;;;;5064639;28;20807;-78
2021/10/05 04:45:44;;;;;;;0.80;0.50;;;12.80;99.90;;;;;;5062461;28;20411;-78
2021/10/05 04:48:13;;;;;;;0.83;0.50;;;12.70;99.90;;;;;;5067546;28;20417;-78
2021/10/05 04:50:41;;;;;;;0.87;0.60;;;12.80;99.90;;;;;;5069377;28;20461;-79
2021/10/05 04:53:09;;;;;;;0.80;0.50;;;12.80;99.90;;;;;;5068504;28;20457;-79
2021/10/05 04:55:38;;;;;;;0.90;0.70;;;12.80;99.90;;;;;;5067665;28;20485;-79
2021/10/05 04:58:06;;;;;;;0.80;0.50;;;12.80;99.90;;;;;;5067770;28;20417;-79
2021/10/05 05:00:34;;;;;;;0.80;0.50;;;12.80;99.90;;;;;;5065983;28;20501;-79
2021/10/05 05:03:02;;;;;;;0.90;0.60;;;12.80;99.90;;;;;;5067662;28;20420;-78
2021/10/05 05:05:31;;;;;;;0.93;0.60;;;12.80;99.90;;;;;;5069237;28;20423;-79
2021/10/05 05:08:04;;;;;;;0.80;0.50;;;12.70;99.90;;;;;;5068476;28;20443;-78
2021/10/05 05:10:32;;;;;;;0.90;0.80;;;12.80;99.90;;;;;;5070761;28;20415;-80
2021/10/05 05:13:01;;;;;;;0.97;0.67;;;12.90;99.90;;;;;;5069618;28;20888;-80
2021/10/05 05:15:29;;;;;;;0.80;0.50;;;12.80;99.90;;;;;;5067623;28;20459;-79
2021/10/05 05:17:57;;;;;;;1.03;0.63;;;12.80;99.90;;;;;;5064331;28;20436;-78
2021/10/05 05:20:25;;;;;;;0.80;0.50;;;12.80;99.90;;;;;;5037986;28;20464;-80
2021/10/05 05:22:54;;;;;;;1.00;0.60;;;12.80;99.90;;;;;;5035672;28;20412;-78
2021/10/05 05:25:23;;;;;;;1.27;0.60;;;12.70;99.90;;;;;;5037532;28;20491;-79
2021/10/05 05:27:51;;;;;;;0.90;0.50;;;12.70;99.90;;;;;;5032312;28;20468;-78
2021/10/05 05:30:20;;;;;;;0.80;0.50;;;12.70;99.90;;;;;;5048660;28;20395;-78
2021/10/05 05:32:48;;;;;;;0.80;0.50;;;12.70;99.90;;;;;;5057067;28;20423;-78
2021/10/05 05:35:16;;;;;;;12.63;1.13;;;12.60;99.90;;;;;;5058093;28;20438;-77
2021/10/05 05:37:44;;;;;;;0.83;0.60;;;12.60;99.90;;;;;;5047342;28;20761;-77
2021/10/05 05:40:14;;;;;;;0.80;0.50;;;12.50;99.90;;;;;;5048386;28;20431;-78
2021/10/05 05:42:42;;;;;;;0.80;0.60;;;12.50;99.90;;;;;;5050983;28;20502;-78
2021/10/05 05:45:11;;;;;;;0.80;0.50;;;12.50;99.90;;;;;;5072697;28;20493;-76
2021/10/05 05:47:39;;;;;;;1.10;0.50;;;12.60;99.90;;;;;;5076757;28;20424;-77
2021/10/05 05:50:09;;;;;;;1.10;0.90;;;12.60;99.90;;;;;;5075070;28;20429;-78
2021/10/05 05:52:37;;;;;;;1.30;1.20;;;12.60;99.90;;;;;;5072424;28;20404;-78
2021/10/05 05:55:07;;;;;;;1.43;1.33;;;12.70;99.90;;;;;;5073821;28;20455;-77
2021/10/05 05:57:37;;;;;;;3.00;2.90;;;12.60;99.90;;;;;;5074475;28;20440;-79
2021/10/05 06:00:06;;;;;;;1.47;1.37;;;12.70;99.90;;;;;;5072656;28;20404;-78
2021/10/05 06:02:38;;;;;;;0.80;0.53;;;12.70;99.90;;;;;;5062765;28;20423;-78
2021/10/05 06:05:08;;;;;;;0.80;0.50;;;12.60;99.90;;;;;;5045016;28;20447;-77
2021/10/05 06:07:36;;;;;;;0.80;0.53;;;12.60;99.90;;;;;;5045206;28;20404;-78
2021/10/05 06:10:05;;;;;;;1.37;0.63;;;12.60;99.90;;;;;;5053599;28;20944;-78
2021/10/05 06:12:39;;;;;;;0.90;0.80;;;12.60;99.90;;;;;;5048446;28;20443;-78
2021/10/05 06:15:10;;;;;;;1.00;0.60;;;12.60;99.90;;;;;;5051982;28;20468;-79
2021/10/05 06:17:40;;;;;;;1.00;0.60;;;12.70;99.90;;;;;;5059640;28;20418;-79
2021/10/05 06:20:11;;;;;;;1.10;0.70;;;12.60;99.90;;;;;;5069725;28;20406;-77
2021/10/05 06:22:40;;;;;;;0.97;0.50;;;12.60;99.90;;;;;;5070916;28;20408;-78
2021/10/05 06:25:11;;;;;;;0.80;0.53;;;12.70;99.90;;;;;;5072407;28;20526;-78
2021/10/05 06:27:39;;;;;;;2.00;1.80;;;12.90;99.90;;;;;;5073549;28;20427;-78
2021/10/05 06:30:11;;;;;;;4.17;3.37;;;12.80;99.90;;;;;;5091581;22;20543;-68
2021/10/05 06:32:41;;;;;;;1.23;1.10;;;12.90;99.90;;;;;;5072262;28;20831;-67
2021/10/05 06:35:10;;;;;;;3.43;1.97;;;12.90;99.90;;;;;;5072237;28;20432;-68
2021/10/05 06:37:39;;;;;;;2.20;1.63;;;12.90;99.90;;;;;;5071775;28;20393;-67
2021/10/05 06:40:08;;;;;;;1.97;1.40;;;12.80;99.90;;;;;;5071599;28;20919;-68
2021/10/05 06:42:36;;;;;;;1.40;1.30;;;12.90;99.90;;;;;;5071556;28;20460;-66
2021/10/05 06:45:06;;;;;;;1.03;0.93;;;13.00;99.90;;;;;;5069774;28;20409;-68
2021/10/05 06:47:35;;;;;;;1.40;0.70;;;13.10;99.90;;;;;;5071600;28;20814;-68
2021/10/05 06:50:05;;;;;;;1.00;0.70;;;13.10;99.90;;;;;;5072368;28;20462;-67
2021/10/05 06:52:33;;;;;;;1.07;0.60;;;13.10;99.90;;;;;;5071935;28;20503;-68
2021/10/05 06:55:02;;;;;;;1.00;0.83;;;13.20;99.90;;;;;;5071853;28;20397;-67
2021/10/05 06:57:30;;;;;;;1.07;0.70;;;13.20;99.90;;;;;;5071817;28;20418;-66
2021/10/05 06:59:58;;;;;;;1.43;1.13;;;13.20;99.90;;;;;;5072206;28;20418;-68
2021/10/05 07:02:27;;;;;;;0.90;0.70;;;13.20;99.90;;;;;;5071288;28;20468;-67
2021/10/05 07:04:56;;;;;;;0.90;0.60;;;13.20;99.90;;;;;;5070893;28;20507;-66
2021/10/05 07:07:25;;;;;;;1.00;0.60;;;13.30;99.90;;;;;;5070647;28;20415;-68
2021/10/05 07:09:53;;;;;;;1.47;1.10;;;13.30;99.90;;;;;;5071241;28;20434;-66
2021/10/05 07:12:21;;;;;;;1.10;0.93;;;13.20;99.90;;;;;;5070845;28;20449;-66
2021/10/05 07:14:49;;;;;;;1.30;1.00;;;13.30;99.90;;;;;;5070973;28;20431;-66
2021/10/05 07:17:30;;;;;;;0.93;0.57;;;13.20;99.90;;;;;;5051436;28;20434;-67
2021/10/05 07:20:00;;;;;;;1.00;0.70;;;13.30;99.90;;;;;;5051979;28;20400;-67
2021/10/05 07:22:29;;;;;;;0.90;0.70;;;13.30;99.90;;;;;;5051538;28;20446;-68
2021/10/05 07:24:57;;;;;;;1.13;0.97;;;13.20;99.90;;;;;;5051874;28;20423;-67
2021/10/05 07:27:26;;;;;;;1.00;0.57;;;13.20;99.90;;;;;;5051106;28;20966;-68
2021/10/05 07:29:54;;;;;;;3.50;2.57;;;13.30;99.90;;;;;;5051378;28;20421;-65
2021/10/05 07:32:22;;;;;;;1.67;0.70;;;13.30;99.90;;;;;;5064998;28;20458;-67
2021/10/05 07:34:51;;;;;;;1.87;1.53;;;13.20;99.90;;;;;;5071429;28;21222;-67
2021/10/05 07:37:20;;;;;;;3.33;1.03;;;13.20;99.90;;;;;;5070801;28;20449;-67
2021/10/05 07:39:48;;;;;;;0.90;0.60;;;13.30;99.90;;;;;;5071283;28;20415;-66
2021/10/05 07:42:20;;;;;;;1.00;0.70;;;13.30;99.90;;;;;;5071883;28;21029;-67
2021/10/05 07:44:49;;;;;;;0.90;0.60;;;13.30;99.90;;;;;;5090745;28;20426;-67
2021/10/05 07:47:17;;;;;;;0.80;0.50;;;13.20;99.90;;;;;;5061657;28;20412;-69
2021/10/05 07:49:46;;;;;;;0.87;0.53;;;13.30;99.90;;;;;;5074519;28;20422;-67
2021/10/05 07:52:14;;;;;;;2.40;2.23;;;13.30;99.90;;;;;;5071756;28;20828;-68
2021/10/05 07:54:43;;;;;;;2.30;2.13;;;13.30;99.90;;;;;;5077469;28;20418;-67
2021/10/05 07:57:12;;;;;;;1.10;1.00;;;13.40;99.90;;;;;;5074100;28;20432;-69
2021/10/05 07:59:40;;;;;;;1.20;0.70;;;13.40;99.90;;;;;;5075720;28;20520;-66
2021/10/05 08:02:08;;;;;;;1.53;0.90;;;13.40;99.90;;;;;;5070502;28;20446;-66
2021/10/05 08:04:36;;;;;;;0.97;0.87;;;13.40;99.90;;;;;;5070644;28;20942;-68
2021/10/05 08:07:05;;;;;;;1.83;1.63;;;13.40;99.90;;;;;;5070260;28;20397;-68
2021/10/05 08:09:33;;;;;;;2.40;1.23;;;13.50;99.90;;;;;;5070093;28;20401;-66
2021/10/05 08:12:03;;;;;;;3.53;1.53;;;13.50;99.90;;;;;;5074412;28;20447;-67
2021/10/05 08:14:31;;;;;;;1.73;1.63;;;13.50;99.90;;;;;;5075005;28;20930;-67
2021/10/05 08:17:00;;;;;;;1.37;1.27;;;13.50;99.90;;;;;;5075196;28;20466;-67
2021/10/05 08:19:28;;;;;;;2.60;1.70;;;13.60;99.90;;;;;;5074381;28;20401;-67
2021/10/05 08:21:56;;;;;;;1.40;1.30;;;13.60;99.90;;;;;;5073278;28;20458;-67
2021/10/05 08:24:25;;;;;;;2.27;1.10;;;13.80;99.90;;;;;;5076658;28;20822;-68
2021/10/05 08:26:54;;;;;;;2.73;1.43;;;13.80;99.90;;;;;;5076287;28;20858;-67
2021/10/05 08:29:24;;;;;;;1.37;0.80;;;13.80;99.90;;;;;;5076986;28;20413;-67
2021/10/05 08:31:52;;;;;;;1.87;1.63;;;13.70;99.90;;;;;;5069758;28;20792;-67
2021/10/05 08:34:20;;;;;;;3.87;1.70;;;13.70;99.90;;;;;;5070259;28;20433;-66
2021/10/05 08:36:48;;;;;;;1.50;1.40;;;13.70;99.90;;;;;;5070441;28;20455;-68
2021/10/05 08:39:17;;;;;;;9.93;3.17;;;13.80;99.90;;;;;;5069877;28;20437;-68
2021/10/05 08:41:46;;;;;;;1.07;0.77;;;13.80;99.90;;;;;;5051319;28;20989;-68
2021/10/05 08:44:15;;;;;;;2.27;1.90;;;13.80;99.90;;;;;;5069338;28;20392;-67
2021/10/05 08:46:46;;;;;;;1.43;1.33;;;13.80;99.90;;;;;;5069794;28;20475;-68
2021/10/05 08:49:14;;;;;;;3.23;1.80;;;13.90;99.90;;;;;;5051568;28;20479;-66
2021/10/05 08:51:42;;;;;;;2.10;2.00;;;13.90;99.90;;;;;;5069417;28;21031;-68
2021/10/05 08:54:11;;;;;;;1.73;1.63;;;14.00;99.90;;;;;;5069495;28;20513;-66
2021/10/05 08:56:41;;;;;;;3.93;2.30;;;13.90;99.90;;;;;;5069477;28;21187;-67
2021/10/05 08:59:09;;;;;;;1.97;1.50;;;14.10;99.90;;;;;;5067007;28;20405;-69
2021/10/05 09:01:38;;;;;;;3.93;3.50;;;14.30;99.90;;;;;;5069808;28;20442;-68
2021/10/05 09:04:08;;;;;;;1.93;1.53;;;14.30;99.90;;;;;;5074043;28;20476;-66
2021/10/05 09:06:37;;;;;;;1.90;1.80;;;14.30;99.90;;;;;;5073688;28;20442;-67
2021/10/05 09:09:06;;;;;;;2.77;2.50;;;14.10;99.90;;;;;;5073997;28;20950;-67
2021/10/05 09:11:39;;;;;;;3.67;3.40;;;14.20;99.90;;;;;;5070909;28;20771;-68
2021/10/05 09:14:09;;;;;;;7.43;3.70;;;14.20;99.90;;;;;;5072198;28;20422;-67
2021/10/05 09:16:38;;;;;;;2.20;2.00;;;14.40;99.90;;;;;;5065561;28;20465;-66
2021/10/05 09:19:10;;;;;;;3.77;1.90;;;14.50;99.90;;;;;;5073843;28;20426;-68
2021/10/05 09:21:40;;;;;;;1.83;1.40;;;14.70;99.90;;;;;;5073725;28;20443;-67
2021/10/05 09:24:12;;;;;;;2.37;2.17;;;14.80;99.90;;;;;;5073609;28;20466;-66
2021/10/05 09:26:49;;;;;;;3.13;2.30;;;14.90;99.90;;;;;;5073488;28;20418;-67
2021/10/05 09:29:21;;;;;;;1.57;1.27;;;15.00;99.90;;;;;;5070751;28;20405;-67
2021/10/05 09:31:58;;;;;;;3.27;2.97;;;15.00;99.90;;;;;;5073569;28;20983;-67
2021/10/05 09:34:40;;;;;;;2.97;2.47;;;15.10;99.90;;;;;;5073790;28;20411;-68
2021/10/05 09:37:14;;;;;;;4.00;2.93;;;15.10;99.90;;;;;;5075326;28;20433;-68
2021/10/05 09:39:46;;;;;;;3.50;3.20;;;15.00;99.90;;;;;;5071126;28;20397;-68
2021/10/05 09:42:23;;;;;;;4.67;2.43;;;15.10;99.90;;;;;;5073218;28;20944;-66
2021/10/05 09:44:56;;;;;;;4.43;4.03;;;15.10;99.90;;;;;;5074936;28;20396;-68
2021/10/05 09:47:35;;;;;;;2.77;2.57;;;15.20;99.90;;;;;;5068562;28;20389;-67
2021/10/05 09:50:13;;;;;;;4.90;4.50;;;15.20;99.90;;;;;;5071002;28;20426;-67
2021/10/05 09:52:44;;;;;;;12.73;3.63;;;15.10;99.90;;;;;;5068247;28;20420;-66
2021/10/05 09:55:13;;;;;;;2.37;2.20;;;15.20;99.90;;;;;;5072925;28;20393;-68
2021/10/05 09:57:41;;;;;;;4.10;2.73;;;15.20;99.90;;;;;;5062421;28;20506;-67
2021/10/05 10:00:12;;;;;;;2.93;2.67;;;15.30;99.90;;;;;;5073525;28;20522;-67
2021/10/05 10:02:42;;;;;;;7.23;3.00;;;15.40;99.90;;;;;;5073645;28;21022;-68
2021/10/05 10:05:14;;;;;;;2.70;2.50;;;15.20;99.90;;;;;;5067362;28;20466;-67
2021/10/05 10:07:44;;;;;;;5.10;3.37;;;15.20;99.90;;;;;;5072485;28;20397;-68
2021/10/05 10:10:15;;;;;;;3.50;2.77;;;15.10;99.90;;;;;;5072834;28;20427;-67
2021/10/05 10:12:47;;;;;;;3.93;3.60;;;15.00;99.90;;;;;;5070541;28;20413;-68
2021/10/05 10:15:16;;;;;;;2.17;1.90;;;15.00;99.90;;;;;;5072780;28;20433;-68
2021/10/05 10:17:46;;;;;;;1.70;1.53;;;14.90;99.90;;;;;;5073662;28;20486;-67
2021/10/05 10:20:26;;;;;;;2.90;2.60;;;14.80;99.90;;;;;;5073566;28;20407;-67
2021/10/05 10:22:54;;;;;;;2.23;2.03;;;14.70;99.90;;;;;;5074200;28;20454;-67
2021/10/05 10:25:24;;;;;;;5.33;4.93;;;14.80;99.90;;;;;;5073791;28;20873;-66
2021/10/05 10:27:56;;;;;;;2.87;2.60;;;14.90;99.90;;;;;;5073852;28;20393;-67
2021/10/05 10:30:24;;;;;;;4.03;3.73;;;14.90;99.90;;;;;;5073214;28;20783;-67
2021/10/05 10:32:59;;;;;;;7.70;5.10;;;15.00;99.90;;;;;;5072476;28;20452;-68
2021/10/05 10:35:28;;;;;;;4.73;4.00;;;14.80;99.90;;;;;;5072378;28;20394;-68
2021/10/05 10:37:57;;;;;;;2.67;1.50;;;14.90;99.90;;;;;;5072262;28;20457;-68
2021/10/05 10:40:34;;;;;;;6.13;3.00;;;14.80;99.90;;;;;;5072509;28;20403;-67
2021/10/05 10:43:13;;;;;;;5.50;3.60;;;14.80;99.90;;;;;;5072303;28;20802;-67
2021/10/05 10:45:46;;;;;;;3.73;3.43;;;14.80;99.90;;;;;;5072348;28;20784;-67
2021/10/05 10:48:27;;;;;;;3.00;2.70;;;15.00;99.90;;;;;;5072307;28;20393;-67
2021/10/05 10:50:57;;;;;;;3.73;3.40;;;15.20;99.90;;;;;;5072709;28;20434;-68
2021/10/05 10:53:38;;;;;;;4.50;4.10;;;15.10;99.90;;;;;;5054750;28;20439;-68
2021/10/05 10:56:08;;;;;;;3.47;3.13;;;15.10;99.90;;;;;;5072072;28;21072;-68
2021/10/05 10:58:41;;;;;;;3.53;3.30;;;15.10;99.90;;;;;;5072298;28;20933;-67
2021/10/05 11:01:17;;;;;;;5.50;3.10;;;15.10;99.90;;;;;;5070939;28;20424;-67
2021/10/05 11:03:45;;;;;;;4.70;4.30;;;15.00;99.90;;;;;;5071869;28;20401;-68
2021/10/05 11:06:24;;;;;;;2.73;2.43;;;15.00;99.90;;;;;;5072878;28;20997;-68
2021/10/05 11:08:57;;;;;;;3.70;3.17;;;15.20;99.90;;;;;;5077298;28;20862;-68
2021/10/05 11:11:34;;;;;;;3.43;3.10;;;15.20;99.90;;;;;;5064595;28;20466;-67
2021/10/05 11:14:05;;;;;;;4.70;4.03;;;15.10;99.90;;;;;;5066004;28;20430;-67
2021/10/05 11:16:35;;;;;;;6.67;4.90;;;15.10;99.90;;;;;;5071093;28;20422;-68
2021/10/05 11:19:08;;;;;;;5.03;4.53;;;15.10;99.90;;;;;;5067312;28;20655;-66
2021/10/05 11:21:40;;;;;;;4.97;4.57;;;15.20;99.90;;;;;;5067997;28;20421;-66
2021/10/05 11:24:09;;;;;;;4.33;4.03;;;15.40;99.90;;;;;;5071073;28;20405;-67
2021/10/05 11:26:38;;;;;;;2.53;2.27;;;15.40;99.90;;;;;;5071038;28;20434;-66
2021/10/05 11:29:08;;;;;;;6.13;4.77;;;15.60;99.90;;;;;;5070686;28;20413;-66
2021/10/05 11:31:45;;;;;;;3.67;3.37;;;15.70;99.90;;;;;;5070651;28;20485;-68
2021/10/05 11:34:14;;;;;;;9.93;5.07;;;15.60;99.90;;;;;;5067430;28;20822;-67
2021/10/05 11:36:44;;;;;;;7.67;4.53;;;15.80;99.90;;;;;;5071074;28;20533;-68
2021/10/05 11:39:21;;;;;;;3.40;3.10;;;15.80;99.90;;;;;;5067253;28;20560;-68
2021/10/05 11:41:51;;;;;;;7.50;4.80;;;15.80;99.90;;;;;;5070883;28;20472;-66
2021/10/05 11:44:21;;;;;;;6.60;4.30;;;15.80;99.90;;;;;;5082147;28;20426;-68
2021/10/05 11:46:58;;;;;;;3.13;2.83;;;15.90;99.90;;;;;;5081039;28;20454;-69
2021/10/05 11:49:30;;;;;;;3.80;3.50;;;16.10;99.90;;;;;;5071181;28;20397;-68
2021/10/05 11:52:00;;;;;;;7.20;3.50;;;16.10;99.90;;;;;;5063097;28;20438;-67
2021/10/05 11:54:30;;;;;;;8.60;8.00;;;16.10;99.90;;;;;;5070778;28;20436;-67
2021/10/05 11:57:01;;;;;;;3.90;3.57;;;16.30;99.90;;;;;;5070949;28;20397;-67
2021/10/05 11:59:31;;;;;;;7.40;4.43;;;16.40;99.90;;;;;;5070913;28;20441;-66
2021/10/05 12:02:04;;;;;;;6.27;4.90;;;16.50;99.90;;;;;;5071483;28;20489;-68
2021/10/05 12:04:33;;;;;;;6.20;4.63;;;16.50;99.90;;;;;;5071511;28;20505;-68
2021/10/05 12:07:06;;;;;;;6.20;4.13;;;16.50;99.90;;;;;;5070879;28;20852;-67
2021/10/05 12:09:35;;;;;;;5.60;4.57;;;16.50;99.90;;;;;;5070569;28;20393;-67
2021/10/05 12:12:09;;;;;;;4.93;4.60;;;16.30;99.90;;;;;;5070392;28;20457;-68
2021/10/05 12:14:41;;;;;;;6.67;6.17;;;16.40;99.90;;;;;;5070708;28;20888;-66
2021/10/05 12:17:15;;;;;;;7.10;6.37;;;16.40;99.90;;;;;;5067176;28;20407;-68
2021/10/05 12:19:46;;;;;;;5.23;3.63;;;16.20;99.90;;;;;;5067388;28;20433;-66
2021/10/05 12:22:20;;;;;;;5.40;4.93;;;16.10;99.90;;;;;;5069584;28;20424;-67
2021/10/05 12:24:51;;;;;;;5.63;5.23;;;16.10;99.90;;;;;;5069343;28;20419;-67
2021/10/05 12:27:21;;;;;;;5.87;5.37;;;16.20;99.90;;;;;;5069629;28;20415;-68
2021/10/05 12:29:52;;;;;;;4.03;3.20;;;16.10;99.90;;;;;;5069719;28;20437;-67
2021/10/05 12:32:32;;;;;;;11.20;5.20;;;15.90;99.90;;;;;;5069601;28;20446;-67
2021/10/05 12:35:00;;;;;;;7.33;5.73;;;15.90;99.90;;;;;;5069424;28;20401;-67
2021/10/05 12:37:34;;;;;;;5.63;4.97;;;15.90;99.90;;;;;;5072106;28;20409;-67
2021/10/05 12:40:06;;;;;;;6.40;5.90;;;16.00;99.90;;;;;;5073697;28;20448;-67
2021/10/05 12:42:41;;;;;;;6.17;5.00;;;15.90;99.90;;;;;;5069688;28;20446;-67
2021/10/05 12:45:12;;;;;;;4.13;3.80;;;15.90;99.90;;;;;;5072066;28;20461;-68
2021/10/05 12:47:55;;;;;;;4.73;4.07;;;15.90;99.90;;;;;;5073276;28;20796;-67
2021/10/05 12:50:26;;;;;;;7.07;5.87;;;15.90;99.90;;;;;;5073841;28;20444;-67
2021/10/05 12:52:58;;;;;;;4.37;3.93;;;16.00;99.90;;;;;;5074317;28;20424;-66
2021/10/05 12:55:27;;;;;;;5.03;3.13;;;16.20;99.90;;;;;;5073368;28;20474;-66
2021/10/05 12:57:57;;;;;;;5.17;4.77;;;16.10;99.90;;;;;;5073549;28;20703;-66
2021/10/05 13:00:26;;;;;;;3.77;3.40;;;16.20;99.90;;;;;;5073102;28;20535;-67